sensor_id;sensor_type;location;lat;lon;timestamp;temperature;humidity
8892;DHT22;4482;54.332;10.118;2022-07-11T00:02:01;12.20;99.90
8892;DHT22;4482;54.332;10.118;2022-07-11T00:04:29;12.20;99.90
8892;DHT22;4482;54.332;10.118;2022-07-11T00:06:56;12.10;99.90
8892;DHT22;4482;54.332;10.118;2022-07-11T00:09:24;12.10;99.90
8892;DHT22;4482;54.332;10.118;2022-07-11T00:11:51;12.10;99.90
8892;DHT22;4482;54.332;10.118;2022-07-11T00:14:18;12.10;99.90
8892;DHT22;4482;54.332;10.118;2022-07-11T00:16:45;12.00;99.90
8892;DHT22;4482;54.332;10.118;2022-07-11T00:19:12;12.00;99.90
8892;DHT22;4482;54.332;10.118;2022-07-11T00:21:41;12.00;99.90
8892;DHT22;4482;54.332;10.118;2022-07-11T00:24:08;12.00;99.90
8892;DHT22;4482;54.332;10.118;2022-07-11T00:26:35;12.00;99.90
8892;DHT22;4482;54.332;10.118;2022-07-11T00:29:02;12.00;99.90
8892;DHT22;4482;54.332;10.118;2022-07-11T00:31:29;11.90;99.90
8892;DHT22;4482;54.332;10.118;2022-07-11T00:33:57;11.90;99.90
8892;DHT22;4482;54.332;10.118;2022-07-11T00:36:24;12.00;99.90
8892;DHT22;4482;54.332;10.118;2022-07-11T00:38:52;12.00;99.90
8892;DHT22;4482;54.332;10.118;2022-07-11T00:41:19;11.90;99.90
8892;DHT22;4482;54.332;10.118;2022-07-11T00:43:52;11.90;99.90
8892;DHT22;4482;54.332;10.118;2022-07-11T00:46:20;12.00;99.90
8892;DHT22;4482;54.332;10.118;2022-07-11T00:48:47;11.90;99.90
8892;DHT22;4482;54.332;10.118;2022-07-11T00:51:14;11.90;99.90
8892;DHT22;4482;54.332;10.118;2022-07-11T00:53:42;11.90;99.90
8892;DHT22;4482;54.332;10.118;2022-07-11T00:56:10;11.90;99.90
8892;DHT22;4482;54.332;10.118;2022-07-11T00:58:37;11.90;99.90
8892;DHT22;4482;54.332;10.118;2022-07-11T01:01:05;11.80;99.90
8892;DHT22;4482;54.332;10.118;2022-07-11T01:03:34;11.80;99.90
8892;DHT22;4482;54.332;10.118;2022-07-11T01:06:01;11.80;99.90
8892;DHT22;4482;54.332;10.118;2022-07-11T01:08:28;11.70;99.90
8892;DHT22;4482;54.332;10.118;2022-07-11T01:10:59;11.70;99.90
8892;DHT22;4482;54.332;10.118;2022-07-11T01:13:28;11.70;99.90
8892;DHT22;4482;54.332;10.118;2022-07-11T01:16:07;11.70;99.90
8892;DHT22;4482;54.332;10.118;2022-07-11T01:18:34;11.70;99.90
8892;DHT22;4482;54.332;10.118;2022-07-11T01:21:02;11.70;99.90
8892;DHT22;4482;54.332;10.118;2022-07-11T01:23:32;11.60;99.90
8892;DHT22;4482;54.332;10.118;2022-07-11T01:25:59;11.60;99.90
8892;DHT22;4482;54.332;10.118;2022-07-11T01:28:26;11.60;99.90
8892;DHT22;4482;54.332;10.118;2022-07-11T01:30:53;11.50;99.90
8892;DHT22;4482;54.332;10.118;2022-07-11T01:33:20;11.50;99.90
8892;DHT22;4482;54.332;10.118;2022-07-11T01:35:46;11.50;99.90
8892;DHT22;4482;54.332;10.118;2022-07-11T01:38:13;11.50;99.90
8892;DHT22;4482;54.332;10.118;2022-07-11T01:40:41;11.50;99.90
8892;DHT22;4482;54.332;10.118;2022-07-11T01:43:08;11.50;99.90
8892;DHT22;4482;54.332;10.118;2022-07-11T01:45:35;11.50;99.90
8892;DHT22;4482;54.332;10.118;2022-07-11T01:48:02;11.50;99.90
8892;DHT22;4482;54.332;10.118;2022-07-11T01:50:29;11.50;99.90
8892;DHT22;4482;54.332;10.118;2022-07-11T01:52:56;11.40;99.90
8892;DHT22;4482;54.332;10.118;2022-07-11T01:55:22;11.40;99.90
8892;DHT22;4482;54.332;10.118;2022-07-11T01:57:51;11.40;99.90
8892;DHT22;4482;54.332;10.118;2022-07-11T02:00:17;11.40;99.90
8892;DHT22;4482;54.332;10.118;2022-07-11T02:02:44;11.30;99.90
8892;DHT22;4482;54.332;10.118;2022-07-11T02:05:11;11.30;99.90
8892;DHT22;4482;54.332;10.118;2022-07-11T02:07:38;11.30;99.90
8892;DHT22;4482;54.332;10.118;2022-07-11T02:10:22;11.30;99.90
8892;DHT22;4482;54.332;10.118;2022-07-11T02:12:56;11.30;99.90
8892;DHT22;4482;54.332;10.118;2022-07-11T02:15:23;11.30;99.90
8892;DHT22;4482;54.332;10.118;2022-07-11T02:17:50;11.20;99.90
8892;DHT22;4482;54.332;10.118;2022-07-11T02:20:18;11.20;99.90
8892;DHT22;4482;54.332;10.118;2022-07-11T02:22:45;11.20;99.90
8892;DHT22;4482;54.332;10.118;2022-07-11T02:25:11;11.20;99.90
8892;DHT22;4482;54.332;10.118;2022-07-11T02:27:38;11.20;99.90
8892;DHT22;4482;54.332;10.118;2022-07-11T02:30:07;11.20;99.90
8892;DHT22;4482;54.332;10.118;2022-07-11T02:32:35;11.20;99.90
8892;DHT22;4482;54.332;10.118;2022-07-11T02:35:02;11.20;99.90
8892;DHT22;4482;54.332;10.118;2022-07-11T02:37:29;11.10;99.90
8892;DHT22;4482;54.332;10.118;2022-07-11T02:39:57;11.10;99.90
8892;DHT22;4482;54.332;10.118;2022-07-11T02:42:24;11.10;99.90
8892;DHT22;4482;54.332;10.118;2022-07-11T02:44:50;11.10;99.90
8892;DHT22;4482;54.332;10.118;2022-07-11T02:47:19;11.20;99.90
8892;DHT22;4482;54.332;10.118;2022-07-11T02:49:45;11.20;99.90
8892;DHT22;4482;54.332;10.118;2022-07-11T02:52:13;11.10;99.90
8892;DHT22;4482;54.332;10.118;2022-07-11T02:54:40;11.10;99.90
8892;DHT22;4482;54.332;10.118;2022-07-11T02:57:07;11.10;99.90
8892;DHT22;4482;54.332;10.118;2022-07-11T02:59:34;11.10;99.90
8892;DHT22;4482;54.332;10.118;2022-07-11T03:02:01;11.10;99.90
8892;DHT22;4482;54.332;10.118;2022-07-11T03:04:31;11.10;99.90
8892;DHT22;4482;54.332;10.118;2022-07-11T03:06:58;11.10;99.90
8892;DHT22;4482;54.332;10.118;2022-07-11T03:09:25;11.10;99.90
8892;DHT22;4482;54.332;10.118;2022-07-11T03:11:52;11.00;99.90
8892;DHT22;4482;54.332;10.118;2022-07-11T03:14:19;11.00;99.90
8892;DHT22;4482;54.332;10.118;2022-07-11T03:16:46;11.00;99.90
8892;DHT22;4482;54.332;10.118;2022-07-11T03:19:13;11.00;99.90
8892;DHT22;4482;54.332;10.118;2022-07-11T03:21:41;11.00;99.90
8892;DHT22;4482;54.332;10.118;2022-07-11T03:24:08;11.00;99.90
8892;DHT22;4482;54.332;10.118;2022-07-11T03:26:34;11.00;99.90
8892;DHT22;4482;54.332;10.118;2022-07-11T03:29:01;11.00;99.90
8892;DHT22;4482;54.332;10.118;2022-07-11T03:31:28;11.00;99.90
8892;DHT22;4482;54.332;10.118;2022-07-11T03:33:55;11.00;99.90
8892;DHT22;4482;54.332;10.118;2022-07-11T03:36:22;11.00;99.90
8892;DHT22;4482;54.332;10.118;2022-07-11T03:38:50;11.10;99.90
8892;DHT22;4482;54.332;10.118;2022-07-11T03:41:17;11.10;99.90
8892;DHT22;4482;54.332;10.118;2022-07-11T03:43:44;11.20;99.90
8892;DHT22;4482;54.332;10.118;2022-07-11T03:46:11;11.20;99.90
8892;DHT22;4482;54.332;10.118;2022-07-11T03:48:38;11.20;99.90
8892;DHT22;4482;54.332;10.118;2022-07-11T03:51:04;11.30;99.90
8892;DHT22;4482;54.332;10.118;2022-07-11T03:53:31;11.30;99.90
8892;DHT22;4482;54.332;10.118;2022-07-11T03:56:00;11.40;99.90
8892;DHT22;4482;54.332;10.118;2022-07-11T03:58:27;11.50;99.90
8892;DHT22;4482;54.332;10.118;2022-07-11T04:00:53;11.50;99.90
8892;DHT22;4482;54.332;10.118;2022-07-11T04:03:20;11.60;99.90
8892;DHT22;4482;54.332;10.118;2022-07-11T04:05:50;11.60;99.90
8892;DHT22;4482;54.332;10.118;2022-07-11T04:08:16;11.70;99.90
8892;DHT22;4482;54.332;10.118;2022-07-11T04:10:44;11.80;99.90
8892;DHT22;4482;54.332;10.118;2022-07-11T04:13:12;11.90;99.90
8892;DHT22;4482;54.332;10.118;2022-07-11T04:15:39;12.00;99.90
8892;DHT22;4482;54.332;10.118;2022-07-11T04:18:05;12.00;99.90
8892;DHT22;4482;54.332;10.118;2022-07-11T04:20:32;12.10;99.90
8892;DHT22;4482;54.332;10.118;2022-07-11T04:22:59;12.20;99.90
8892;DHT22;4482;54.332;10.118;2022-07-11T04:25:26;12.30;99.90
8892;DHT22;4482;54.332;10.118;2022-07-11T04:27:53;12.40;99.90
8892;DHT22;4482;54.332;10.118;2022-07-11T04:30:21;12.40;99.90
8892;DHT22;4482;54.332;10.118;2022-07-11T04:32:48;12.50;99.90
8892;DHT22;4482;54.332;10.118;2022-07-11T04:35:15;12.70;99.90
8892;DHT22;4482;54.332;10.118;2022-07-11T04:37:42;12.80;99.90
8892;DHT22;4482;54.332;10.118;2022-07-11T04:40:10;12.90;99.90
8892;DHT22;4482;54.332;10.118;2022-07-11T04:42:38;13.00;99.90
8892;DHT22;4482;54.332;10.118;2022-07-11T04:45:05;13.10;99.90
8892;DHT22;4482;54.332;10.118;2022-07-11T04:47:34;13.30;99.90
8892;DHT22;4482;54.332;10.118;2022-07-11T04:50:01;13.40;99.90
8892;DHT22;4482;54.332;10.118;2022-07-11T04:52:27;13.50;99.90
8892;DHT22;4482;54.332;10.118;2022-07-11T04:54:54;13.70;99.90
8892;DHT22;4482;54.332;10.118;2022-07-11T04:57:21;13.80;99.90
8892;DHT22;4482;54.332;10.118;2022-07-11T04:59:48;13.90;99.90
8892;DHT22;4482;54.332;10.118;2022-07-11T05:02:15;14.10;99.90
8892;DHT22;4482;54.332;10.118;2022-07-11T05:04:44;14.40;99.90
8892;DHT22;4482;54.332;10.118;2022-07-11T05:07:11;14.50;99.90
8892;DHT22;4482;54.332;10.118;2022-07-11T05:09:39;14.90;99.90
8892;DHT22;4482;54.332;10.118;2022-07-11T05:12:07;15.00;99.90
8892;DHT22;4482;54.332;10.118;2022-07-11T05:14:34;15.20;99.90
8892;DHT22;4482;54.332;10.118;2022-07-11T05:17:01;15.50;99.90
8892;DHT22;4482;54.332;10.118;2022-07-11T05:19:28;15.80;99.90
8892;DHT22;4482;54.332;10.118;2022-07-11T05:21:56;16.10;99.90
8892;DHT22;4482;54.332;10.118;2022-07-11T05:24:23;16.50;99.90
8892;DHT22;4482;54.332;10.118;2022-07-11T05:26:50;16.70;99.90
8892;DHT22;4482;54.332;10.118;2022-07-11T05:29:17;17.20;99.90
8892;DHT22;4482;54.332;10.118;2022-07-11T05:31:44;17.60;99.90
8892;DHT22;4482;54.332;10.118;2022-07-11T05:34:16;17.90;99.90
8892;DHT22;4482;54.332;10.118;2022-07-11T05:36:43;18.20;99.90
8892;DHT22;4482;54.332;10.118;2022-07-11T05:39:11;18.60;99.90
8892;DHT22;4482;54.332;10.118;2022-07-11T05:41:38;19.10;99.90
8892;DHT22;4482;54.332;10.118;2022-07-11T05:44:05;19.50;99.90
8892;DHT22;4482;54.332;10.118;2022-07-11T05:46:31;19.50;99.90
8892;DHT22;4482;54.332;10.118;2022-07-11T05:48:58;19.90;99.90
8892;DHT22;4482;54.332;10.118;2022-07-11T05:51:25;20.40;99.90
8892;DHT22;4482;54.332;10.118;2022-07-11T05:53:52;20.30;99.90
8892;DHT22;4482;54.332;10.118;2022-07-11T05:56:20;20.70;99.90
8892;DHT22;4482;54.332;10.118;2022-07-11T05:58:47;20.90;99.90
8892;DHT22;4482;54.332;10.118;2022-07-11T06:01:14;20.80;99.90
8892;DHT22;4482;54.332;10.118;2022-07-11T06:03:40;20.70;99.90
8892;DHT22;4482;54.332;10.118;2022-07-11T06:06:07;20.50;99.90
8892;DHT22;4482;54.332;10.118;2022-07-11T06:08:36;20.50;99.90
8892;DHT22;4482;54.332;10.118;2022-07-11T06:11:08;20.60;99.90
8892;DHT22;4482;54.332;10.118;2022-07-11T06:13:37;20.80;99.90
8892;DHT22;4482;54.332;10.118;2022-07-11T06:16:05;20.70;99.90
8892;DHT22;4482;54.332;10.118;2022-07-11T06:18:32;20.70;99.90
8892;DHT22;4482;54.332;10.118;2022-07-11T06:20:59;20.80;99.90
8892;DHT22;4482;54.332;10.118;2022-07-11T06:23:26;20.90;99.90
8892;DHT22;4482;54.332;10.118;2022-07-11T06:25:53;20.90;99.90
8892;DHT22;4482;54.332;10.118;2022-07-11T06:28:20;20.10;99.90
8892;DHT22;4482;54.332;10.118;2022-07-11T06:30:49;20.40;99.90
8892;DHT22;4482;54.332;10.118;2022-07-11T06:33:16;20.80;99.90
8892;DHT22;4482;54.332;10.118;2022-07-11T06:35:43;20.60;99.90
8892;DHT22;4482;54.332;10.118;2022-07-11T06:38:10;19.80;99.90
8892;DHT22;4482;54.332;10.118;2022-07-11T06:40:37;19.10;99.90
8892;DHT22;4482;54.332;10.118;2022-07-11T06:43:04;18.50;99.90
8892;DHT22;4482;54.332;10.118;2022-07-11T06:45:32;18.80;99.90
8892;DHT22;4482;54.332;10.118;2022-07-11T06:48:00;19.70;99.90
8892;DHT22;4482;54.332;10.118;2022-07-11T06:50:27;20.80;99.90
8892;DHT22;4482;54.332;10.118;2022-07-11T06:52:54;21.70;99.90
8892;DHT22;4482;54.332;10.118;2022-07-11T06:55:21;22.20;99.90
8892;DHT22;4482;54.332;10.118;2022-07-11T06:57:48;22.60;99.90
8892;DHT22;4482;54.332;10.118;2022-07-11T07:00:15;22.60;99.90
8892;DHT22;4482;54.332;10.118;2022-07-11T07:02:43;22.50;99.90
8892;DHT22;4482;54.332;10.118;2022-07-11T07:05:11;22.40;99.90
8892;DHT22;4482;54.332;10.118;2022-07-11T07:07:38;21.80;99.90
8892;DHT22;4482;54.332;10.118;2022-07-11T07:10:06;21.30;99.90
8892;DHT22;4482;54.332;10.118;2022-07-11T07:12:37;20.60;99.90
8892;DHT22;4482;54.332;10.118;2022-07-11T07:15:05;21.30;99.90
8892;DHT22;4482;54.332;10.118;2022-07-11T07:17:32;22.30;99.90
8892;DHT22;4482;54.332;10.118;2022-07-11T07:19:59;22.20;99.90
8892;DHT22;4482;54.332;10.118;2022-07-11T07:22:28;22.10;99.90
8892;DHT22;4482;54.332;10.118;2022-07-11T07:24:54;21.30;99.90
8892;DHT22;4482;54.332;10.118;2022-07-11T07:27:21;20.10;99.90
8892;DHT22;4482;54.332;10.118;2022-07-11T07:29:48;19.40;99.90
8892;DHT22;4482;54.332;10.118;2022-07-11T07:32:15;18.80;99.90
8892;DHT22;4482;54.332;10.118;2022-07-11T07:34:42;18.50;99.90
8892;DHT22;4482;54.332;10.118;2022-07-11T07:37:08;18.10;99.90
8892;DHT22;4482;54.332;10.118;2022-07-11T07:39:37;18.20;99.90
8892;DHT22;4482;54.332;10.118;2022-07-11T07:42:04;20.40;99.90
8892;DHT22;4482;54.332;10.118;2022-07-11T07:44:32;22.80;99.90
8892;DHT22;4482;54.332;10.118;2022-07-11T07:46:59;24.80;99.90
8892;DHT22;4482;54.332;10.118;2022-07-11T07:49:26;26.40;99.90
8892;DHT22;4482;54.332;10.118;2022-07-11T07:51:53;27.40;99.90
8892;DHT22;4482;54.332;10.118;2022-07-11T07:54:20;27.80;99.90
8892;DHT22;4482;54.332;10.118;2022-07-11T07:56:48;26.40;99.90
8892;DHT22;4482;54.332;10.118;2022-07-11T07:59:15;24.40;99.90
8892;DHT22;4482;54.332;10.118;2022-07-11T08:01:42;23.40;99.90
8892;DHT22;4482;54.332;10.118;2022-07-11T08:04:11;23.40;99.90
8892;DHT22;4482;54.332;10.118;2022-07-11T08:06:38;25.00;99.90
8892;DHT22;4482;54.332;10.118;2022-07-11T08:09:05;26.90;99.90
8892;DHT22;4482;54.332;10.118;2022-07-11T08:11:33;28.30;99.20
8892;DHT22;4482;54.332;10.118;2022-07-11T08:14:02;29.40;96.10
8892;DHT22;4482;54.332;10.118;2022-07-11T08:16:31;30.40;94.10
8892;DHT22;4482;54.332;10.118;2022-07-11T08:18:59;30.30;92.50
8892;DHT22;4482;54.332;10.118;2022-07-11T08:21:26;30.60;91.10
8892;DHT22;4482;54.332;10.118;2022-07-11T08:23:53;30.90;89.90
8892;DHT22;4482;54.332;10.118;2022-07-11T08:26:20;31.20;88.30
8892;DHT22;4482;54.332;10.118;2022-07-11T08:28:47;31.50;85.30
8892;DHT22;4482;54.332;10.118;2022-07-11T08:31:15;31.80;83.10
8892;DHT22;4482;54.332;10.118;2022-07-11T08:33:42;31.30;81.00
8892;DHT22;4482;54.332;10.118;2022-07-11T08:36:09;29.60;84.10
8892;DHT22;4482;54.332;10.118;2022-07-11T08:38:36;29.30;83.10
8892;DHT22;4482;54.332;10.118;2022-07-11T08:41:03;28.30;85.30
8892;DHT22;4482;54.332;10.118;2022-07-11T08:43:30;26.30;89.60
8892;DHT22;4482;54.332;10.118;2022-07-11T08:45:59;26.40;90.70
8892;DHT22;4482;54.332;10.118;2022-07-11T08:48:27;28.60;87.30
8892;DHT22;4482;54.332;10.118;2022-07-11T08:50:54;30.70;82.70
8892;DHT22;4482;54.332;10.118;2022-07-11T08:53:22;31.40;76.40
8892;DHT22;4482;54.332;10.118;2022-07-11T08:55:48;31.90;75.40
8892;DHT22;4482;54.332;10.118;2022-07-11T08:58:17;30.30;77.60
8892;DHT22;4482;54.332;10.118;2022-07-11T09:00:44;29.00;77.90
8892;DHT22;4482;54.332;10.118;2022-07-11T09:03:14;27.50;84.00
8892;DHT22;4482;54.332;10.118;2022-07-11T09:05:44;25.20;90.00
8892;DHT22;4482;54.332;10.118;2022-07-11T09:08:11;23.70;93.90
8892;DHT22;4482;54.332;10.118;2022-07-11T09:10:38;22.90;97.20
8892;DHT22;4482;54.332;10.118;2022-07-11T09:13:07;23.30;98.70
8892;DHT22;4482;54.332;10.118;2022-07-11T09:15:38;26.60;95.00
8892;DHT22;4482;54.332;10.118;2022-07-11T09:18:06;28.20;90.40
8892;DHT22;4482;54.332;10.118;2022-07-11T09:20:55;26.90;90.80
8892;DHT22;4482;54.332;10.118;2022-07-11T09:23:42;24.70;92.50
8892;DHT22;4482;54.332;10.118;2022-07-11T09:26:29;26.20;92.40
8892;DHT22;4482;54.332;10.118;2022-07-11T09:29:00;28.90;88.60
8892;DHT22;4482;54.332;10.118;2022-07-11T09:31:27;30.80;82.30
8892;DHT22;4482;54.332;10.118;2022-07-11T09:33:59;31.10;80.10
8892;DHT22;4482;54.332;10.118;2022-07-11T09:36:39;31.90;73.50
8892;DHT22;4482;54.332;10.118;2022-07-11T09:39:08;32.10;71.50
8892;DHT22;4482;54.332;10.118;2022-07-11T09:41:37;31.70;71.10
8892;DHT22;4482;54.332;10.118;2022-07-11T09:44:09;31.60;69.60
8892;DHT22;4482;54.332;10.118;2022-07-11T09:46:36;31.40;67.10
8892;DHT22;4482;54.332;10.118;2022-07-11T09:49:03;32.40;66.10
8892;DHT22;4482;54.332;10.118;2022-07-11T09:51:31;31.90;65.70
8892;DHT22;4482;54.332;10.118;2022-07-11T09:54:00;31.90;65.40
8892;DHT22;4482;54.332;10.118;2022-07-11T09:56:34;32.60;64.10
8892;DHT22;4482;54.332;10.118;2022-07-11T09:59:02;32.10;66.10
8892;DHT22;4482;54.332;10.118;2022-07-11T10:01:30;32.20;66.10
8892;DHT22;4482;54.332;10.118;2022-07-11T10:03:58;32.20;64.10
8892;DHT22;4482;54.332;10.118;2022-07-11T10:06:25;32.40;64.50
8892;DHT22;4482;54.332;10.118;2022-07-11T10:08:53;32.60;62.30
8892;DHT22;4482;54.332;10.118;2022-07-11T10:11:21;32.10;63.60
8892;DHT22;4482;54.332;10.118;2022-07-11T10:13:49;31.90;62.00
8892;DHT22;4482;54.332;10.118;2022-07-11T10:16:32;31.40;61.60
8892;DHT22;4482;54.332;10.118;2022-07-11T10:19:16;31.50;62.10
8892;DHT22;4482;54.332;10.118;2022-07-11T10:21:52;33.00;59.80
8892;DHT22;4482;54.332;10.118;2022-07-11T10:24:31;32.00;58.90
8892;DHT22;4482;54.332;10.118;2022-07-11T10:27:08;29.90;62.30
8892;DHT22;4482;54.332;10.118;2022-07-11T10:29:40;27.40;68.20
8892;DHT22;4482;54.332;10.118;2022-07-11T10:32:11;25.50;74.90
8892;DHT22;4482;54.332;10.118;2022-07-11T10:34:39;26.00;76.30
8892;DHT22;4482;54.332;10.118;2022-07-11T10:37:07;27.20;75.20
8892;DHT22;4482;54.332;10.118;2022-07-11T10:39:36;29.70;69.30
8892;DHT22;4482;54.332;10.118;2022-07-11T10:42:06;31.60;64.40
8892;DHT22;4482;54.332;10.118;2022-07-11T10:44:49;32.50;62.00
8892;DHT22;4482;54.332;10.118;2022-07-11T10:47:33;30.50;64.60
8892;DHT22;4482;54.332;10.118;2022-07-11T10:50:07;31.20;63.70
8892;DHT22;4482;54.332;10.118;2022-07-11T10:52:37;32.00;59.40
8892;DHT22;4482;54.332;10.118;2022-07-11T10:55:17;32.80;57.00
8892;DHT22;4482;54.332;10.118;2022-07-11T10:57:51;32.80;56.80
8892;DHT22;4482;54.332;10.118;2022-07-11T11:00:25;33.00;55.80
8892;DHT22;4482;54.332;10.118;2022-07-11T11:03:01;33.60;55.70
8892;DHT22;4482;54.332;10.118;2022-07-11T11:05:44;33.80;55.80
8892;DHT22;4482;54.332;10.118;2022-07-11T11:11:36;34.60;54.20
8892;DHT22;4482;54.332;10.118;2022-07-11T11:14:22;30.90;55.20
8892;DHT22;4482;54.332;10.118;2022-07-11T11:16:51;28.40;61.30
8892;DHT22;4482;54.332;10.118;2022-07-11T11:19:52;26.80;68.60
8892;DHT22;4482;54.332;10.118;2022-07-11T11:22:20;29.20;65.30
8892;DHT22;4482;54.332;10.118;2022-07-11T11:24:49;30.70;58.70
8892;DHT22;4482;54.332;10.118;2022-07-11T11:27:17;32.40;56.20
8892;DHT22;4482;54.332;10.118;2022-07-11T11:29:50;33.10;54.70
8892;DHT22;4482;54.332;10.118;2022-07-11T11:32:18;33.50;54.40
8892;DHT22;4482;54.332;10.118;2022-07-11T11:34:46;32.20;55.60
8892;DHT22;4482;54.332;10.118;2022-07-11T11:37:15;31.20;57.10
8892;DHT22;4482;54.332;10.118;2022-07-11T11:39:43;30.40;58.50
8892;DHT22;4482;54.332;10.118;2022-07-11T11:42:12;29.80;59.10
8892;DHT22;4482;54.332;10.118;2022-07-11T11:44:56;28.30;62.00
8892;DHT22;4482;54.332;10.118;2022-07-11T11:47:24;26.20;68.00
8892;DHT22;4482;54.332;10.118;2022-07-11T11:49:51;27.50;68.00
8892;DHT22;4482;54.332;10.118;2022-07-11T11:52:19;29.70;61.40
8892;DHT22;4482;54.332;10.118;2022-07-11T11:54:54;30.80;58.60
8892;DHT22;4482;54.332;10.118;2022-07-11T11:57:23;31.40;56.50
8892;DHT22;4482;54.332;10.118;2022-07-11T11:59:52;31.90;56.80
8892;DHT22;4482;54.332;10.118;2022-07-11T12:02:24;31.10;56.90
8892;DHT22;4482;54.332;10.118;2022-07-11T12:04:51;28.70;58.60
8892;DHT22;4482;54.332;10.118;2022-07-11T12:07:25;26.70;61.60
8892;DHT22;4482;54.332;10.118;2022-07-11T12:09:54;25.40;67.00
8892;DHT22;4482;54.332;10.118;2022-07-11T12:12:23;24.00;71.60
8892;DHT22;4482;54.332;10.118;2022-07-11T12:15:23;23.30;75.70
8892;DHT22;4482;54.332;10.118;2022-07-11T12:17:52;22.80;79.50
8892;DHT22;4482;54.332;10.118;2022-07-11T12:20:39;22.40;80.60
8892;DHT22;4482;54.332;10.118;2022-07-11T12:23:08;22.40;80.60
8892;DHT22;4482;54.332;10.118;2022-07-11T12:25:35;22.40;82.70
8892;DHT22;4482;54.332;10.118;2022-07-11T12:28:03;22.20;85.40
8892;DHT22;4482;54.332;10.118;2022-07-11T12:30:31;21.90;89.60
8892;DHT22;4482;54.332;10.118;2022-07-11T12:33:03;21.70;90.50
8892;DHT22;4482;54.332;10.118;2022-07-11T12:35:30;21.50;91.10
8892;DHT22;4482;54.332;10.118;2022-07-11T12:37:57;21.40;91.20
8892;DHT22;4482;54.332;10.118;2022-07-11T12:40:23;21.20;91.90
8892;DHT22;4482;54.332;10.118;2022-07-11T12:42:50;21.10;91.80
8892;DHT22;4482;54.332;10.118;2022-07-11T12:45:17;21.10;93.00
8892;DHT22;4482;54.332;10.118;2022-07-11T12:47:45;21.10;93.20
8892;DHT22;4482;54.332;10.118;2022-07-11T12:50:13;21.00;95.30
8892;DHT22;4482;54.332;10.118;2022-07-11T12:52:41;21.10;99.90
8892;DHT22;4482;54.332;10.118;2022-07-11T12:55:11;21.20;99.90
8892;DHT22;4482;54.332;10.118;2022-07-11T12:58:06;21.30;99.90
8892;DHT22;4482;54.332;10.118;2022-07-11T13:00:34;21.30;99.90
8892;DHT22;4482;54.332;10.118;2022-07-11T13:03:04;21.30;98.60
8892;DHT22;4482;54.332;10.118;2022-07-11T13:05:46;21.30;98.80
8892;DHT22;4482;54.332;10.118;2022-07-11T13:08:22;21.30;98.50
8892;DHT22;4482;54.332;10.118;2022-07-11T13:11:07;21.10;98.40
8892;DHT22;4482;54.332;10.118;2022-07-11T13:13:34;21.20;99.20
8892;DHT22;4482;54.332;10.118;2022-07-11T13:16:01;21.40;99.90
8892;DHT22;4482;54.332;10.118;2022-07-11T13:18:30;21.30;99.90
8892;DHT22;4482;54.332;10.118;2022-07-11T13:20:57;21.40;99.90
8892;DHT22;4482;54.332;10.118;2022-07-11T13:23:24;21.50;99.90
8892;DHT22;4482;54.332;10.118;2022-07-11T13:25:51;21.50;99.90
8892;DHT22;4482;54.332;10.118;2022-07-11T13:28:18;21.40;99.90
8892;DHT22;4482;54.332;10.118;2022-07-11T13:30:45;21.40;99.90
8892;DHT22;4482;54.332;10.118;2022-07-11T13:33:13;21.40;99.90
8892;DHT22;4482;54.332;10.118;2022-07-11T13:35:41;21.40;99.90
8892;DHT22;4482;54.332;10.118;2022-07-11T13:38:08;21.30;99.90
8892;DHT22;4482;54.332;10.118;2022-07-11T13:40:35;21.20;99.90
8892;DHT22;4482;54.332;10.118;2022-07-11T13:43:02;21.10;99.90
8892;DHT22;4482;54.332;10.118;2022-07-11T13:45:29;21.00;99.90
8892;DHT22;4482;54.332;10.118;2022-07-11T13:47:56;20.90;99.90
8892;DHT22;4482;54.332;10.118;2022-07-11T13:50:24;21.00;99.90
8892;DHT22;4482;54.332;10.118;2022-07-11T13:52:52;21.00;99.90
8892;DHT22;4482;54.332;10.118;2022-07-11T13:55:21;21.00;99.90
8892;DHT22;4482;54.332;10.118;2022-07-11T13:57:49;20.90;99.90
8892;DHT22;4482;54.332;10.118;2022-07-11T14:00:18;20.70;99.90
8892;DHT22;4482;54.332;10.118;2022-07-11T14:02:45;20.70;99.90
8892;DHT22;4482;54.332;10.118;2022-07-11T14:05:12;20.70;99.90
8892;DHT22;4482;54.332;10.118;2022-07-11T14:07:39;20.80;99.90
8892;DHT22;4482;54.332;10.118;2022-07-11T14:10:08;20.80;99.90
8892;DHT22;4482;54.332;10.118;2022-07-11T14:12:37;20.80;99.90
8892;DHT22;4482;54.332;10.118;2022-07-11T14:15:06;20.70;99.90
8892;DHT22;4482;54.332;10.118;2022-07-11T14:17:34;20.70;99.90
8892;DHT22;4482;54.332;10.118;2022-07-11T14:20:01;20.70;99.90
8892;DHT22;4482;54.332;10.118;2022-07-11T14:22:28;20.60;99.90
8892;DHT22;4482;54.332;10.118;2022-07-11T14:24:55;20.60;99.90
8892;DHT22;4482;54.332;10.118;2022-07-11T14:27:23;20.60;99.90
8892;DHT22;4482;54.332;10.118;2022-07-11T14:29:51;20.70;99.90
8892;DHT22;4482;54.332;10.118;2022-07-11T14:32:18;20.60;99.90
8892;DHT22;4482;54.332;10.118;2022-07-11T14:34:46;20.60;99.90
8892;DHT22;4482;54.332;10.118;2022-07-11T14:37:12;20.60;99.90
8892;DHT22;4482;54.332;10.118;2022-07-11T14:39:39;20.70;99.90
8892;DHT22;4482;54.332;10.118;2022-07-11T14:42:06;20.70;99.90
8892;DHT22;4482;54.332;10.118;2022-07-11T14:44:34;20.80;99.90
8892;DHT22;4482;54.332;10.118;2022-07-11T14:47:01;20.80;99.90
8892;DHT22;4482;54.332;10.118;2022-07-11T14:49:28;20.80;99.90
8892;DHT22;4482;54.332;10.118;2022-07-11T14:51:55;20.80;99.90
8892;DHT22;4482;54.332;10.118;2022-07-11T14:54:22;20.70;99.90
8892;DHT22;4482;54.332;10.118;2022-07-11T14:56:50;20.50;99.90
8892;DHT22;4482;54.332;10.118;2022-07-11T14:59:16;20.50;99.90
8892;DHT22;4482;54.332;10.118;2022-07-11T15:01:45;20.60;99.90
8892;DHT22;4482;54.332;10.118;2022-07-11T15:04:12;20.70;99.90
8892;DHT22;4482;54.332;10.118;2022-07-11T15:06:39;20.70;99.90
8892;DHT22;4482;54.332;10.118;2022-07-11T15:09:23;20.70;99.90
8892;DHT22;4482;54.332;10.118;2022-07-11T15:12:08;20.70;99.90
8892;DHT22;4482;54.332;10.118;2022-07-11T15:14:53;20.70;99.90
8892;DHT22;4482;54.332;10.118;2022-07-11T15:17:22;20.60;99.90
8892;DHT22;4482;54.332;10.118;2022-07-11T15:19:49;20.70;99.90
8892;DHT22;4482;54.332;10.118;2022-07-11T15:22:16;20.70;99.90
8892;DHT22;4482;54.332;10.118;2022-07-11T15:24:44;20.60;99.90
8892;DHT22;4482;54.332;10.118;2022-07-11T15:27:11;20.70;99.90
8892;DHT22;4482;54.332;10.118;2022-07-11T15:29:38;20.70;99.90
8892;DHT22;4482;54.332;10.118;2022-07-11T15:32:06;20.70;99.90
8892;DHT22;4482;54.332;10.118;2022-07-11T15:34:34;20.70;99.90
8892;DHT22;4482;54.332;10.118;2022-07-11T15:37:01;20.70;99.90
8892;DHT22;4482;54.332;10.118;2022-07-11T15:39:29;20.70;99.90
8892;DHT22;4482;54.332;10.118;2022-07-11T15:41:56;20.70;99.90
8892;DHT22;4482;54.332;10.118;2022-07-11T15:44:22;20.70;99.90
8892;DHT22;4482;54.332;10.118;2022-07-11T15:46:51;20.60;99.90
8892;DHT22;4482;54.332;10.118;2022-07-11T15:49:18;20.60;99.90
8892;DHT22;4482;54.332;10.118;2022-07-11T15:51:46;20.60;99.90
8892;DHT22;4482;54.332;10.118;2022-07-11T15:54:13;20.60;99.90
8892;DHT22;4482;54.332;10.118;2022-07-11T15:56:40;20.60;99.90
8892;DHT22;4482;54.332;10.118;2022-07-11T15:59:07;20.60;99.90